Webcam Richtung Westen

Webcam27

Webcam Richtung Norden

Webcam36

Webcam Richtung Osten

Webcam09

Wetter(Würzburg):
191800Z AUTO 32005G10KT 70KM SCT064 BKN100 BKN220 23/14 Q1016
		
Fri 19.07.2019, 18:00 UTC

Sichtweite bis zu 70 km
Wind aus 320° mit 05kt, in Böen bis zu 10kt
einige Wolken (3-4 Achtel) bei 6400 Fuß
unterbrochene Wolkendecke (5-7 Achtel) bei 10000 Fuß
unterbrochene Wolkendecke (5-7 Achtel) bei 22000 Fuß
Temperatur: 23 °C
Taupunkt: 14 °C
QNH: 1016 hPa
                         Heute        Morgen
                         19.07        20.07
--------------------------------------------
Beginn der Dämmerung     02:51        02:53
Sonnenaufgang            03:33        03:34
Sonnenuntergang          19:20        19:19
Ende der Dämmerung       20:01        20:00

Alle Zeiten in UTC